createdAt,value
2017-10-23T00:03:48.647Z,1006.36
2017-10-23T00:13:48.698Z,1006.44
2017-10-23T00:23:48.668Z,1006.46
2017-10-23T00:33:48.717Z,1006.55
2017-10-23T00:43:48.678Z,1006.72
2017-10-23T00:53:48.750Z,1006.7
2017-10-23T01:03:48.766Z,1006.81
2017-10-23T01:13:48.772Z,1006.81
2017-10-23T01:23:48.729Z,1006.84
2017-10-23T01:33:48.695Z,1006.81
2017-10-23T01:43:48.742Z,1006.72
2017-10-23T01:53:48.703Z,1006.7
2017-10-23T02:03:48.791Z,1006.7
2017-10-23T02:13:48.749Z,1006.82
2017-10-23T02:23:48.805Z,1006.74
2017-10-23T02:33:48.755Z,1006.78
2017-10-23T02:43:48.818Z,1006.88
2017-10-23T02:53:48.774Z,1007.04
2017-10-23T03:03:48.848Z,1007.08
2017-10-23T03:13:48.821Z,1007.23
2017-10-23T03:23:48.767Z,1007.25
2017-10-23T03:33:48.831Z,1007.21
2017-10-23T03:43:48.802Z,1007.29
2017-10-23T03:53:48.851Z,1007.33
2017-10-23T04:03:48.819Z,1007.35
2017-10-23T04:13:48.890Z,1007.45
2017-10-23T04:23:48.844Z,1007.5
2017-10-23T04:33:48.925Z,1007.52
2017-10-23T04:43:48.869Z,1007.55
2017-10-23T04:53:48.951Z,1007.58
2017-10-23T05:03:51.898Z,1007.63
2017-10-23T05:13:48.952Z,1007.64
2017-10-23T05:23:48.912Z,1007.55
2017-10-23T05:33:48.976Z,1007.51
2017-10-23T05:43:48.934Z,1007.51
2017-10-23T05:53:48.887Z,1007.67
2017-10-23T06:03:48.961Z,1007.77
2017-10-23T06:13:49.034Z,1007.83
2017-10-23T06:23:48.986Z,1007.98
2017-10-23T06:33:48.942Z,1007.99
2017-10-23T06:43:49.328Z,1008.17
2017-10-23T06:53:48.987Z,1008.19
2017-10-23T07:03:49.031Z,1008.37
2017-10-23T07:13:48.964Z,1008.37
2017-10-23T07:23:48.974Z,1008.41
2017-10-23T07:33:48.967Z,1008.36
2017-10-23T07:43:49.388Z,1008.45
2017-10-23T07:53:48.990Z,1008.43
2017-10-23T08:03:49.023Z,1008.5
2017-10-23T08:13:49.007Z,1008.63
2017-10-23T08:23:49.020Z,1008.78
2017-10-23T08:33:49.030Z,1008.74
2017-10-23T08:43:49.754Z,1008.88
2017-10-23T08:53:49.047Z,1008.87
2017-10-23T09:03:49.048Z,1008.85
2017-10-23T09:13:49.066Z,1008.81
2017-10-23T09:23:49.065Z,1008.81
2017-10-23T09:33:49.082Z,1008.88
2017-10-23T09:43:49.149Z,1008.95
2017-10-23T09:53:49.098Z,1008.89
2017-10-23T10:03:49.095Z,1008.86
2017-10-23T10:13:49.121Z,1008.99
2017-10-23T10:23:49.113Z,1008.95
2017-10-23T10:33:49.132Z,1009.1
2017-10-23T10:43:49.513Z,1009.05
2017-10-23T10:53:49.146Z,1009.09
2017-10-23T11:03:49.206Z,1009.15
2017-10-23T11:13:49.232Z,1009.26
2017-10-23T11:23:49.314Z,1009.2
2017-10-23T11:33:49.273Z,1009.12
2017-10-23T11:43:49.226Z,1009.2
2017-10-23T11:53:49.308Z,1009.22
2017-10-23T12:03:49.266Z,1009.23
2017-10-23T12:13:49.327Z,1009.16
2017-10-23T12:23:49.244Z,1009.3
2017-10-23T12:33:49.257Z,1009.28
2017-10-23T12:43:49.263Z,1009.27
2017-10-23T12:53:49.275Z,1009.27
2017-10-23T13:03:49.282Z,1009.41
2017-10-23T13:13:49.295Z,1009.42
2017-10-23T13:23:49.307Z,1009.54
2017-10-23T13:33:49.314Z,1009.69
2017-10-23T13:43:49.330Z,1009.61
2017-10-23T13:53:49.327Z,1009.72
2017-10-23T14:03:49.333Z,1009.92
2017-10-23T14:13:49.497Z,1009.98
2017-10-23T14:23:49.411Z,1010.12
2017-10-23T14:33:49.499Z,1010.28
2017-10-23T14:43:49.449Z,1010.39
2017-10-23T14:53:49.387Z,1010.44
2017-10-23T15:03:51.509Z,1010.52
2017-10-23T15:13:49.432Z,1010.64
2017-10-23T15:23:49.473Z,1010.66
2017-10-23T15:33:49.506Z,1010.74
2017-10-23T15:43:49.459Z,1010.87
2017-10-23T15:53:49.522Z,1010.92
2017-10-23T16:03:49.480Z,1010.99
2017-10-23T16:13:49.542Z,1011.08
2017-10-23T16:23:49.473Z,1011.25
2017-10-23T16:33:49.474Z,1011.35
2017-10-23T16:43:49.493Z,1011.5
2017-10-23T16:53:49.493Z,1011.72
2017-10-23T17:03:49.506Z,1011.86
2017-10-23T17:13:49.557Z,1012.04
2017-10-23T17:23:49.544Z,1012.1
2017-10-23T17:33:51.627Z,1012.32
2017-10-23T17:43:49.547Z,1012.46
2017-10-23T17:53:49.571Z,1012.47
2017-10-23T18:03:49.584Z,1012.58
2017-10-23T18:13:49.592Z,1012.53
2017-10-23T18:23:49.572Z,1012.64
2017-10-23T18:33:49.601Z,1012.71
2017-10-23T18:43:49.628Z,1012.77
2017-10-23T18:53:49.598Z,1012.79
2017-10-23T19:03:49.611Z,1012.89
2017-10-23T19:13:49.629Z,1012.94
2017-10-23T19:23:49.647Z,1013
2017-10-23T19:33:49.667Z,1012.93
2017-10-23T19:43:49.652Z,1013.02
2017-10-23T19:53:49.659Z,1013.02
2017-10-23T20:03:49.680Z,1013.08
2017-10-23T20:13:49.674Z,1013.18
2017-10-23T20:23:49.701Z,1013.24
2017-10-23T20:33:49.723Z,1013.34
2017-10-23T20:43:49.697Z,1013.34
2017-10-23T20:53:49.825Z,1013.56
2017-10-23T21:03:49.812Z,1013.48
2017-10-23T21:13:49.770Z,1013.57
2017-10-23T21:23:49.799Z,1013.54
2017-10-23T21:33:49.768Z,1013.62
2017-10-23T21:43:50.141Z,1013.71
2017-10-23T21:53:51.852Z,1013.58
2017-10-23T22:03:51.814Z,1013.65
2017-10-23T23:13:49.884Z,1013.85
2017-10-23T23:23:50.874Z,1013.84
2017-10-23T23:33:51.854Z,1013.77
2017-10-23T23:43:49.862Z,1013.72
2017-10-23T23:53:55.671Z,1013.68
